createdAt,value
2016-06-25T00:00:53.335Z,77.32
2016-06-25T00:01:52.745Z,77.28
2016-06-25T00:02:53.387Z,77.28
2016-06-25T00:03:53.416Z,77.28
2016-06-25T00:04:52.834Z,77.48
2016-06-25T00:05:52.856Z,77.48
2016-06-25T00:06:52.883Z,77.48
2016-06-25T00:08:52.933Z,77.28
2016-06-25T00:09:53.570Z,77.38
2016-06-25T00:10:52.991Z,77.48
2016-06-25T00:11:53.010Z,77.28
2016-06-25T00:12:53.045Z,77.09
2016-06-25T00:13:53.712Z,77.28
2016-06-25T00:15:07.980Z,77.67
2016-06-25T00:15:53.751Z,77.57
2016-06-25T00:16:53.761Z,78.06
2016-06-25T00:17:53.186Z,78.15
2016-06-25T00:19:53.241Z,77.76
2016-06-25T00:20:53.273Z,77.57
2016-06-25T00:21:53.904Z,77.48
2016-06-25T00:22:53.329Z,77.48
2016-06-25T00:23:53.955Z,77.96
2016-06-25T00:24:53.992Z,77.38
2016-06-25T00:25:53.406Z,77.09
2016-06-25T00:26:54.037Z,77.19
2016-06-25T00:27:53.465Z,77.19
2016-06-25T00:28:54.098Z,77.57
2016-06-25T00:29:54.135Z,77.76
2016-06-25T00:31:08.429Z,77.57
2016-06-25T00:31:54.178Z,77.96
2016-06-25T00:33:53.618Z,77.57
2016-06-25T00:34:53.663Z,78.15
2016-06-25T00:35:54.283Z,78.25
2016-06-25T00:36:54.319Z,78.31
2016-06-25T00:37:54.350Z,78.83
2016-06-25T00:38:54.371Z,78.64
2016-06-25T00:39:54.397Z,78.69
2016-06-25T00:40:53.813Z,79.02
2016-06-25T00:41:54.470Z,78.92
2016-06-25T00:42:54.479Z,78.73
2016-06-25T00:43:54.505Z,79.08
2016-06-25T00:44:54.542Z,78.89
2016-06-25T00:45:54.561Z,78.69
2016-06-25T00:47:08.858Z,79.17
2016-06-25T00:47:54.609Z,78.69
2016-06-25T00:48:54.650Z,79.08
2016-06-25T00:50:54.690Z,78.5
2016-06-25T00:51:54.729Z,78.79
2016-06-25T00:52:54.139Z,78.59
2016-06-25T00:53:54.190Z,78.69
2016-06-25T00:55:54.837Z,78.89
2016-06-25T00:56:54.264Z,78.5
2016-06-25T00:57:54.892Z,79.17
2016-06-25T00:58:54.309Z,78.89
2016-06-25T00:59:54.973Z,79.56
2016-06-25T01:01:55.003Z,79.37
2016-06-25T01:03:09.295Z,79.17
2016-06-25T01:03:55.047Z,79.37
2016-06-25T01:04:54.470Z,80.05
2016-06-25T01:05:55.110Z,79.47
2016-06-25T01:06:55.146Z,79.56
2016-06-25T01:07:54.548Z,79.37
2016-06-25T01:08:54.578Z,79.47
2016-06-25T01:10:54.623Z,79.56
2016-06-25T01:11:55.265Z,79.37
2016-06-25T01:12:54.680Z,79.17
2016-06-25T01:13:54.713Z,79.95
2016-06-25T01:14:55.349Z,79.37
2016-06-25T01:15:54.757Z,79.37
2016-06-25T01:16:55.405Z,79.95
2016-06-25T01:18:09.742Z,79.75
2016-06-25T01:18:55.461Z,79.37
2016-06-25T01:19:54.871Z,79.75
2016-06-25T01:20:55.514Z,79.95
2016-06-25T01:21:55.534Z,79.37
2016-06-25T01:22:54.965Z,79.56
2016-06-25T01:23:55.596Z,79.85
2016-06-25T01:24:55.646Z,80
2016-06-25T01:25:55.058Z,80
2016-06-25T01:26:55.686Z,80.2
2016-06-25T01:27:55.703Z,80
2016-06-25T01:28:55.732Z,80.24
2016-06-25T01:29:55.157Z,79.91
2016-06-25T01:30:55.175Z,80.78
2016-06-25T01:31:55.206Z,80.68
2016-06-25T01:32:55.835Z,80.68
2016-06-25T01:33:55.869Z,81.07
2016-06-25T01:34:55.287Z,80.39
2016-06-25T01:35:55.321Z,80.68
2016-06-25T01:36:55.335Z,81.07
2016-06-25T01:38:56.000Z,81.16
2016-06-25T01:39:56.029Z,81.26
2016-06-25T01:40:55.450Z,81.26
2016-06-25T01:41:56.085Z,80.78
2016-06-25T01:42:55.504Z,81.55
2016-06-25T01:43:55.530Z,81.7
2016-06-25T01:44:56.156Z,81.51
2016-06-25T01:45:56.182Z,81.7
2016-06-25T01:46:56.214Z,81.99
2016-06-25T01:47:55.635Z,81.7
2016-06-25T01:48:55.658Z,82.18
2016-06-25T01:50:10.566Z,81.41
2016-06-25T01:50:55.714Z,82.09
2016-06-25T01:51:56.353Z,81.51
2016-06-25T01:52:56.387Z,80.54
2016-06-25T01:53:56.407Z,80.97
2016-06-25T01:54:56.431Z,81.07
2016-06-25T01:55:56.452Z,81.35
2016-06-25T01:56:56.491Z,81.84
2016-06-25T01:57:56.518Z,81.74
2016-06-25T01:58:55.961Z,81.26
2016-06-25T01:59:56.574Z,81.65
2016-06-25T02:00:55.988Z,81.51
2016-06-25T02:01:56.010Z,81.7
2016-06-25T02:02:56.734Z,81.55
2016-06-25T02:03:56.684Z,81.7
2016-06-25T02:06:11.003Z,81.22
2016-06-25T02:06:56.758Z,81.32
2016-06-25T02:07:56.802Z,81.41
2016-06-25T02:08:56.197Z,81.41
2016-06-25T02:09:56.839Z,81.51
2016-06-25T02:11:56.898Z,82.09
2016-06-25T02:12:56.309Z,81.8
2016-06-25T02:13:56.341Z,82.38
2016-06-25T02:14:56.978Z,82.09
2016-06-25T02:15:56.997Z,81.8
2016-06-25T02:16:56.426Z,81.99
2016-06-25T02:17:57.056Z,81.7
2016-06-25T02:18:57.082Z,82.18
2016-06-25T02:19:56.503Z,81.99
2016-06-25T02:20:57.133Z,82.28
2016-06-25T02:22:11.439Z,81.99
2016-06-25T02:22:56.586Z,82.18
2016-06-25T02:24:57.243Z,81.7
2016-06-25T02:25:56.657Z,81.51
2016-06-25T02:26:57.301Z,81.8
2016-06-25T02:27:57.321Z,81.9
2016-06-25T02:28:57.354Z,82.18
2016-06-25T02:29:57.381Z,82.09
2016-06-25T02:30:57.401Z,82.28
2016-06-25T02:31:57.435Z,82.57
2016-06-25T02:33:57.486Z,82.38
2016-06-25T02:34:57.558Z,82.18
2016-06-25T02:35:57.533Z,82.67
2016-06-25T02:36:57.586Z,82.48
2016-06-25T02:38:11.866Z,82.38
2016-06-25T02:39:57.035Z,83.15
2016-06-25T02:41:57.706Z,82.43
2016-06-25T02:42:57.118Z,82.82
2016-06-25T02:43:57.756Z,83.5
2016-06-25T02:44:57.811Z,83.88
2016-06-25T02:45:57.832Z,83.3
2016-06-25T02:46:57.829Z,83.3
2016-06-25T02:47:57.858Z,83.3
2016-06-25T02:48:57.884Z,83.59
2016-06-25T02:49:57.914Z,83.3
2016-06-25T02:50:57.939Z,83.3
2016-06-25T02:51:57.969Z,83.2
2016-06-25T02:53:12.278Z,83.59
2016-06-25T02:53:58.023Z,83.4
2016-06-25T02:54:57.454Z,83.11
2016-06-25T02:55:58.078Z,83.69
2016-06-25T02:56:58.121Z,84.36
2016-06-25T02:57:58.141Z,83.59
2016-06-25T02:58:58.156Z,84.17
2016-06-25T02:59:58.183Z,84.27
2016-06-25T03:01:58.244Z,84.07
2016-06-25T03:02:57.656Z,84.17
2016-06-25T03:03:58.294Z,83.88
2016-06-25T03:04:58.316Z,84.36
2016-06-25T03:05:57.734Z,83.69
2016-06-25T03:06:58.376Z,84.17
2016-06-25T03:07:57.794Z,84.36
2016-06-25T03:09:58.469Z,84.27
2016-06-25T03:11:58.507Z,84.36
2016-06-25T03:12:58.533Z,84.27
2016-06-25T03:13:58.553Z,84.07
2016-06-25T03:14:58.576Z,84.07
2016-06-25T03:15:58.008Z,84.07
2016-06-25T03:17:58.222Z,84.07
2016-06-25T03:18:58.688Z,83.59
2016-06-25T03:19:58.879Z,83.98
2016-06-25T03:20:58.801Z,84.17
2016-06-25T03:21:58.783Z,84.27
2016-06-25T03:22:58.799Z,84.17
2016-06-25T03:23:58.218Z,83.88
2016-06-25T03:25:13.121Z,83.98
2016-06-25T03:25:58.914Z,84.07
2016-06-25T03:26:58.318Z,84.55
2016-06-25T03:27:58.930Z,84.17
2016-06-25T03:28:58.978Z,83.98
2016-06-25T03:29:58.985Z,84.07
2016-06-25T03:30:59.021Z,83.88
2016-06-25T03:31:58.433Z,84.17
2016-06-25T03:32:59.079Z,84.17
2016-06-25T03:33:59.103Z,84.27
2016-06-25T03:35:59.144Z,84.17
2016-06-25T03:36:59.189Z,84.17
2016-06-25T03:37:59.207Z,84.27
2016-06-25T03:38:58.667Z,84.07
2016-06-25T03:39:59.274Z,83.78
2016-06-25T03:41:13.555Z,83.88
2016-06-25T03:41:59.308Z,83.59
2016-06-25T03:43:59.370Z,82.92
2016-06-25T03:44:59.392Z,82.92
2016-06-25T03:45:59.422Z,83.05
2016-06-25T03:46:58.838Z,83.05
2016-06-25T03:47:59.473Z,82.38
2016-06-25T03:48:59.495Z,82.57
2016-06-25T03:49:58.922Z,82.67
2016-06-25T03:50:59.546Z,82.57
2016-06-25T03:51:59.573Z,82.57
2016-06-25T03:52:59.612Z,82.48
2016-06-25T03:53:59.638Z,82.57
2016-06-25T03:54:59.658Z,82.67
2016-06-25T03:55:59.091Z,82.48
2016-06-25T03:57:13.983Z,82.38
2016-06-25T03:57:59.742Z,82.28
2016-06-25T03:58:59.767Z,82.28
2016-06-25T03:59:59.202Z,82.48
2016-06-25T04:00:59.834Z,81.99
2016-06-25T04:01:59.243Z,82.28
2016-06-25T04:03:59.912Z,82.09
2016-06-25T04:04:59.925Z,81.7
2016-06-25T04:05:59.957Z,81.7
2016-06-25T04:07:00.016Z,81.9
2016-06-25T04:08:00.009Z,82.09
2016-06-25T04:08:59.421Z,81.45
2016-06-25T04:09:59.479Z,81.51
2016-06-25T04:11:00.093Z,81.93
2016-06-25T04:12:00.118Z,80.68
2016-06-25T04:13:14.415Z,78.79
2016-06-25T04:14:00.175Z,76.93
2016-06-25T04:14:59.610Z,73.91
2016-06-25T04:16:00.294Z,71.62
2016-06-25T04:17:00.263Z,69.08
2016-06-25T04:17:59.683Z,67.47
2016-06-25T04:19:00.313Z,65.37
2016-06-25T04:20:00.339Z,64.04
2016-06-25T04:21:00.367Z,61.77
2016-06-25T04:21:59.792Z,60.47
2016-06-25T04:22:59.811Z,59.23
2016-06-25T04:23:59.844Z,58.07
2016-06-25T04:25:00.490Z,57.51
2016-06-25T04:26:59.936Z,56.27
2016-06-25T04:28:14.844Z,55.99
2016-06-25T04:29:00.001Z,55.33
2016-06-25T04:30:00.636Z,54.36
2016-06-25T04:31:00.661Z,54.28
2016-06-25T04:32:00.693Z,53.41
2016-06-25T04:33:00.115Z,51.48
2016-06-25T04:34:00.758Z,51.34
2016-06-25T04:35:00.795Z,49.43
2016-06-25T04:36:00.211Z,48.36
2016-06-25T04:37:00.241Z,47.99
2016-06-25T04:38:00.884Z,47.6
2016-06-25T04:39:00.911Z,47.31
2016-06-25T04:40:00.338Z,48.48
2016-06-25T04:41:00.979Z,47.87
2016-06-25T04:42:01.008Z,47.7
2016-06-25T04:43:01.067Z,47.89
2016-06-25T04:44:01.077Z,47.97
2016-06-25T04:45:01.105Z,49.22
2016-06-25T04:47:00.612Z,48.83
2016-06-25T04:48:01.187Z,48.46
2016-06-25T04:49:01.237Z,48.44
2016-06-25T04:50:01.288Z,48.36
2016-06-25T04:51:01.299Z,46.62
2016-06-25T04:52:00.726Z,45.01
2016-06-25T04:53:00.753Z,44.83
2016-06-25T04:54:00.779Z,44.37
2016-06-25T04:55:01.433Z,42.82
2016-06-25T04:56:01.465Z,43.33
2016-06-25T04:57:00.882Z,42.47
2016-06-25T04:58:00.920Z,41.49
2016-06-25T04:59:01.578Z,42.18
2016-06-25T05:00:15.868Z,40.72
2016-06-25T05:01:01.670Z,40.35
2016-06-25T05:03:01.695Z,39.5
2016-06-25T05:06:01.221Z,39.4
2016-06-25T05:07:01.832Z,38.92
2016-06-25T05:08:01.874Z,38.62
2016-06-25T05:09:01.913Z,38.52
2016-06-25T05:10:02.175Z,37.76
2016-06-25T05:11:01.363Z,37.85
2016-06-25T05:12:01.393Z,37.57
2016-06-25T05:13:02.041Z,37.48
2016-06-25T05:14:01.456Z,37.46
2016-06-25T05:15:01.496Z,37.28
2016-06-25T05:16:16.421Z,37.65
2016-06-25T05:17:01.572Z,37.67
2016-06-25T05:18:01.639Z,37.69
2016-06-25T05:19:02.247Z,35.8
2016-06-25T05:20:02.293Z,36.72
2016-06-25T05:21:01.702Z,36.99
2016-06-25T05:22:01.743Z,36.41
2016-06-25T05:23:01.792Z,36.71
2016-06-25T05:24:01.820Z,35.54
2016-06-25T05:25:01.860Z,35.17
2016-06-25T05:26:01.890Z,35.46
2016-06-25T05:27:02.535Z,34.39
2016-06-25T05:28:02.567Z,33.84
2016-06-25T05:29:02.614Z,33.74
2016-06-25T05:30:02.653Z,32.78
2016-06-25T05:31:02.077Z,33.18
2016-06-25T05:32:16.982Z,32.09
2016-06-25T05:34:02.191Z,34.13
2016-06-25T05:35:02.218Z,32.67
2016-06-25T05:36:02.877Z,33.18
2016-06-25T05:37:02.895Z,33.16
2016-06-25T05:38:02.326Z,33.36
2016-06-25T05:39:02.977Z,32.67
2016-06-25T05:40:03.006Z,33.06
2016-06-25T05:41:02.428Z,32.29
2016-06-25T05:42:03.081Z,32.31
2016-06-25T05:43:02.502Z,32.31
2016-06-25T05:44:02.533Z,31.79
2016-06-25T05:45:02.577Z,31.33
2016-06-25T05:46:03.222Z,31.23
2016-06-25T05:47:03.266Z,32.12
2016-06-25T05:48:17.575Z,32.12
2016-06-25T05:49:03.341Z,32.6
2016-06-25T05:50:03.380Z,32.03
2016-06-25T05:51:03.416Z,30.85
2016-06-25T05:52:03.465Z,30.65
2016-06-25T05:53:03.489Z,30.49
2016-06-25T05:54:03.525Z,30.57
2016-06-25T05:55:03.556Z,30.87
2016-06-25T05:56:03.604Z,30.98
2016-06-25T05:57:03.627Z,29.43
2016-06-25T05:58:03.059Z,28.96
2016-06-25T05:59:03.715Z,28.76
2016-06-25T06:00:03.754Z,28.64
2016-06-25T06:01:03.229Z,29.34
2016-06-25T06:02:03.830Z,28.66
2016-06-25T06:03:18.134Z,29.64
2016-06-25T06:04:03.897Z,30.6
2016-06-25T06:05:03.336Z,29.02
2016-06-25T06:06:03.363Z,28.25
2016-06-25T06:07:04.030Z,27.88
2016-06-25T06:08:04.052Z,28.56
2016-06-25T06:09:03.491Z,28.86
2016-06-25T06:11:03.566Z,28.08
2016-06-25T06:12:03.592Z,27.98
2016-06-25T06:13:04.258Z,28.28
2016-06-25T06:14:04.285Z,28.77
2016-06-25T06:16:03.758Z,28.28
2016-06-25T06:17:04.403Z,28.88
2016-06-25T06:18:04.439Z,29.23
2016-06-25T06:19:04.463Z,29.04
2016-06-25T06:20:04.510Z,29.43
2016-06-25T06:21:04.543Z,27.95
2016-06-25T06:22:04.629Z,28.38
2016-06-25T06:23:04.033Z,26.98
2016-06-25T06:24:04.665Z,28.28
2016-06-25T06:25:04.721Z,27.47
2016-06-25T06:26:04.745Z,27.91
2016-06-25T06:27:04.163Z,27.01
2016-06-25T06:28:04.207Z,26.42
2016-06-25T06:29:04.854Z,26.34
2016-06-25T06:30:04.900Z,26.25
2016-06-25T06:31:04.319Z,27.24
2016-06-25T06:32:04.361Z,26.33
2016-06-25T06:33:04.401Z,26.26
2016-06-25T06:34:05.053Z,26.74
2016-06-25T06:35:19.359Z,26.64
2016-06-25T06:36:05.129Z,26.72
2016-06-25T06:37:05.159Z,29.06
2016-06-25T06:39:04.633Z,30.67
2016-06-25T06:40:05.289Z,30.26
2016-06-25T06:41:05.347Z,30.08
2016-06-25T06:42:05.347Z,29.6
2016-06-25T06:43:05.409Z,28.72
2016-06-25T06:44:04.818Z,28.94
2016-06-25T06:45:05.462Z,27.87
2016-06-25T06:46:05.506Z,27.7
2016-06-25T06:47:04.933Z,27.21
2016-06-25T06:48:05.599Z,26.42
2016-06-25T06:49:05.623Z,26.33
2016-06-25T06:50:05.052Z,26.33
2016-06-25T06:51:19.978Z,26.54
2016-06-25T06:52:05.167Z,26.54
2016-06-25T06:53:05.775Z,26.44
2016-06-25T06:54:05.824Z,25.45
2016-06-25T06:55:05.852Z,25.87
2016-06-25T06:56:05.280Z,25.96
2016-06-25T06:57:05.931Z,25.76
2016-06-25T06:58:05.361Z,26.43
2016-06-25T06:59:05.395Z,28.29
2016-06-25T07:00:05.446Z,29.91
2016-06-25T07:01:06.086Z,29.97
2016-06-25T07:02:05.531Z,28.93
2016-06-25T07:03:06.167Z,29.32
2016-06-25T07:04:05.599Z,29.41
2016-06-25T07:05:05.638Z,30.21
2016-06-25T07:07:20.602Z,29.02
2016-06-25T07:08:05.757Z,28.75
2016-06-25T07:09:05.792Z,28.17
2016-06-25T07:10:06.455Z,28.56
2016-06-25T07:11:06.478Z,27.5
2016-06-25T07:12:06.517Z,28.28
2016-06-25T07:14:06.594Z,27.67
2016-06-25T07:15:06.023Z,28.66
2016-06-25T07:16:06.083Z,28.28
2016-06-25T07:17:06.706Z,29.36
2016-06-25T07:18:06.142Z,29.5
2016-06-25T07:19:06.778Z,29.82
2016-06-25T07:20:06.819Z,29.82
2016-06-25T07:21:06.255Z,29.43
2016-06-25T07:22:06.290Z,28.55
2016-06-25T07:23:21.218Z,28.76
2016-06-25T07:24:06.982Z,29.34
2016-06-25T07:25:06.458Z,30.98
2016-06-25T07:26:07.067Z,30.76
2016-06-25T07:28:06.532Z,30.68
2016-06-25T07:29:07.173Z,29.39
2016-06-25T07:30:06.602Z,27.75
2016-06-25T07:31:07.245Z,27.58
2016-06-25T07:32:06.674Z,28.08
2016-06-25T07:33:06.726Z,27.87
2016-06-25T07:34:06.768Z,27.5
2016-06-25T07:35:07.413Z,27.03
2016-06-25T07:36:07.443Z,27.33
2016-06-25T07:37:07.479Z,26.43
2016-06-25T07:38:21.790Z,26.15
2016-06-25T07:39:06.947Z,25.46
2016-06-25T07:40:06.979Z,26.54
2016-06-25T07:41:07.635Z,25.76
2016-06-25T07:42:07.058Z,26.16
2016-06-25T07:43:07.099Z,25.67
2016-06-25T07:44:07.747Z,25.76
2016-06-25T07:45:07.176Z,25.76
2016-06-25T07:46:07.826Z,26.63
2016-06-25T07:47:07.862Z,25.93
2016-06-25T07:48:07.897Z,26.35
2016-06-25T07:49:07.933Z,25.85
2016-06-25T07:50:07.365Z,24.16
2016-06-25T07:51:07.409Z,24.28
2016-06-25T07:52:08.052Z,24.49
2016-06-25T07:53:07.486Z,25.29
2016-06-25T07:54:07.520Z,25.56
2016-06-25T07:55:07.562Z,24.66
2016-06-25T07:56:08.205Z,25.07
2016-06-25T07:57:08.244Z,25.36
2016-06-25T07:58:07.680Z,26.25
2016-06-25T07:59:07.717Z,27.99
2016-06-25T08:00:07.772Z,27.57
2016-06-25T08:01:07.795Z,27.88
2016-06-25T08:02:08.446Z,26.62
2016-06-25T08:03:07.867Z,26.92
2016-06-25T08:04:08.528Z,26.63
2016-06-25T08:05:08.558Z,26.04
2016-06-25T08:06:07.991Z,24.89
2016-06-25T08:07:08.631Z,25
2016-06-25T08:08:08.057Z,25.78
2016-06-25T08:09:08.717Z,26.25
2016-06-25T08:10:23.024Z,25.63
2016-06-25T08:11:08.793Z,25.65
2016-06-25T08:13:08.260Z,25.68
2016-06-25T08:14:08.902Z,25.3
2016-06-25T08:15:08.981Z,24.2
2016-06-25T08:16:08.372Z,24.41
2016-06-25T08:17:09.026Z,24.9
2016-06-25T08:18:08.446Z,24.59
2016-06-25T08:19:09.099Z,24.6
2016-06-25T08:20:09.172Z,24.5
2016-06-25T08:21:09.182Z,24.89
2016-06-25T08:22:08.608Z,24.5
2016-06-25T08:23:09.262Z,25.27
2016-06-25T08:24:09.288Z,25.45
2016-06-25T08:25:09.362Z,26.16
2016-06-25T08:26:23.688Z,24.88
2016-06-25T08:27:08.805Z,25.78
2016-06-25T08:28:09.502Z,26.93
2016-06-25T08:30:09.522Z,25.85
2016-06-25T08:31:09.559Z,26.82
2016-06-25T08:33:09.026Z,27.89
2016-06-25T08:34:09.680Z,26.22
2016-06-25T08:35:09.106Z,25.76
2016-06-25T08:36:09.747Z,26.16
2016-06-25T08:37:09.802Z,26.75
2016-06-25T08:38:09.826Z,27.11
2016-06-25T08:39:09.877Z,26.9
2016-06-25T08:40:09.299Z,26.32
2016-06-25T08:41:09.334Z,26.53
2016-06-25T08:42:24.251Z,26.25
2016-06-25T08:43:09.407Z,25.26
2016-06-25T08:44:10.068Z,26.56
2016-06-25T08:45:10.088Z,26.28
2016-06-25T08:46:10.137Z,26.68
2016-06-25T08:47:10.186Z,25.78
2016-06-25T08:48:10.254Z,26.17
2016-06-25T08:49:10.242Z,25.66
2016-06-25T08:50:10.278Z,25.67
2016-06-25T08:51:09.711Z,27.05
2016-06-25T08:53:09.783Z,28.09
2016-06-25T08:54:09.843Z,27.91
2016-06-25T08:55:10.470Z,27.03
2016-06-25T08:56:09.910Z,27.71
2016-06-25T08:57:10.550Z,27.03
2016-06-25T08:58:24.853Z,26.93
2016-06-25T08:59:10.630Z,27.92
2016-06-25T09:00:10.672Z,28.41
2016-06-25T09:02:10.736Z,27.23
2016-06-25T09:03:10.167Z,27.52
2016-06-25T09:04:10.804Z,28.91
2016-06-25T09:05:10.863Z,27.62
2016-06-25T09:06:10.302Z,28.23
2016-06-25T09:07:10.933Z,27.15
2016-06-25T09:08:10.359Z,25.78
2016-06-25T09:09:11.015Z,26.59
2016-06-25T09:10:10.417Z,26.17
2016-06-25T09:12:10.493Z,26.58
2016-06-25T09:13:25.415Z,27.17
2016-06-25T09:14:11.175Z,26.97
2016-06-25T09:15:11.225Z,26.87
2016-06-25T09:16:11.253Z,26.58
2016-06-25T09:17:11.297Z,27.08
2016-06-25T09:18:11.339Z,26.68
2016-06-25T09:19:10.757Z,26.68
2016-06-25T09:20:10.801Z,27.18
2016-06-25T09:21:11.439Z,25.97
2016-06-25T09:22:11.486Z,26.97
2016-06-25T09:23:11.522Z,25.59
2016-06-25T09:24:10.954Z,26.98
2016-06-25T09:25:10.991Z,26.87
2016-06-25T09:26:11.018Z,27.65
2016-06-25T09:27:11.685Z,27.05
2016-06-25T09:28:11.706Z,27.73
2016-06-25T09:29:11.738Z,28.11
2016-06-25T09:30:11.162Z,28.9
2016-06-25T09:31:11.802Z,27.64
2016-06-25T09:32:11.854Z,27.45
2016-06-25T09:33:11.896Z,27.73
2016-06-25T09:34:11.931Z,27.25
2016-06-25T09:35:11.351Z,27.34
2016-06-25T09:36:12.001Z,28.03
2016-06-25T09:37:12.047Z,28.2
2016-06-25T09:38:11.459Z,28.62
2016-06-25T09:39:11.522Z,28.22
2016-06-25T09:40:12.141Z,28.33
2016-06-25T09:41:12.188Z,27.94
2016-06-25T09:42:12.216Z,29.02
2016-06-25T09:43:11.640Z,28.02
2016-06-25T09:44:12.283Z,27.06
2016-06-25T09:45:26.598Z,28.38
2016-06-25T09:46:12.362Z,28.34
2016-06-25T09:47:11.781Z,28.06
2016-06-25T09:48:11.833Z,28.55
2016-06-25T09:49:12.465Z,28.93
2016-06-25T09:50:11.897Z,28.33
2016-06-25T09:51:11.937Z,28.44
2016-06-25T09:52:12.581Z,28.76
2016-06-25T09:53:12.006Z,27.82
2016-06-25T09:54:12.656Z,28.83
2016-06-25T09:55:12.074Z,29.61
2016-06-25T09:56:12.717Z,29.98
2016-06-25T09:57:12.154Z,29.78
2016-06-25T09:59:12.836Z,28.72
2016-06-25T10:00:12.872Z,29.61
2016-06-25T10:01:27.174Z,29.9
2016-06-25T10:02:12.328Z,30.29
2016-06-25T10:03:12.966Z,30.49
2016-06-25T10:04:13.021Z,30.49
2016-06-25T10:05:13.051Z,29.11
2016-06-25T10:06:13.138Z,28.64
2016-06-25T10:07:13.131Z,28.36
2016-06-25T10:08:13.224Z,28.57
2016-06-25T10:09:13.196Z,28.16
2016-06-25T10:10:13.238Z,28.55
2016-06-25T10:11:12.651Z,30.22
2016-06-25T10:12:13.302Z,29.98
2016-06-25T10:13:12.730Z,30.79
2016-06-25T10:14:13.377Z,30.29
2016-06-25T10:15:13.417Z,29.69
2016-06-25T10:16:13.476Z,29.8
2016-06-25T10:17:27.751Z,30.69
2016-06-25T10:18:13.515Z,30.18
2016-06-25T10:19:12.946Z,30.86
2016-06-25T10:20:13.591Z,31.54
2016-06-25T10:21:13.634Z,31.45
2016-06-25T10:22:13.664Z,29.5
2016-06-25T10:23:13.107Z,29.02
2016-06-25T10:24:13.739Z,29.33
2016-06-25T10:25:13.779Z,28.12
2016-06-25T10:26:13.817Z,28.91
2016-06-25T10:27:13.846Z,27.72
2016-06-25T10:28:13.271Z,27.83
2016-06-25T10:29:13.912Z,26.95
2016-06-25T10:31:13.991Z,28.56
2016-06-25T10:33:28.330Z,28.81
2016-06-25T10:34:13.485Z,28.93
2016-06-25T10:35:14.132Z,29.1
2016-06-25T10:36:14.186Z,29.69
2016-06-25T10:37:13.633Z,29.8
2016-06-25T10:38:14.237Z,29.9
2016-06-25T10:39:13.671Z,29.48
2016-06-25T10:40:14.303Z,30.07
2016-06-25T10:41:13.732Z,30.36
2016-06-25T10:42:14.376Z,30.71
2016-06-25T10:43:14.416Z,31.81
2016-06-25T10:44:14.453Z,32.6
2016-06-25T10:46:13.943Z,31.29
2016-06-25T10:47:14.562Z,32.28
2016-06-25T10:48:28.869Z,32.17
2016-06-25T10:49:14.014Z,33.44
2016-06-25T10:50:14.061Z,32.17
2016-06-25T10:51:14.699Z,32.56
2016-06-25T10:52:14.125Z,31.97
2016-06-25T10:53:14.170Z,31.08
2016-06-25T10:54:14.194Z,31.77
2016-06-25T10:55:14.847Z,32.15
2016-06-25T10:56:14.878Z,33.52
2016-06-25T10:57:14.905Z,33.51
2016-06-25T10:58:14.951Z,34.71
2016-06-25T10:59:15.016Z,34.03
2016-06-25T11:00:15.025Z,32.45
2016-06-25T11:01:15.047Z,33.45
2016-06-25T11:03:15.130Z,31.41
2016-06-25T11:04:15.173Z,32.2
2016-06-25T11:05:14.589Z,32.18
2016-06-25T11:06:14.623Z,31.79
2016-06-25T11:07:14.664Z,31.41
2016-06-25T11:08:15.295Z,30.83
2016-06-25T11:09:15.331Z,30.63
2016-06-25T11:10:15.373Z,31.01
2016-06-25T11:11:14.794Z,30.83
2016-06-25T11:13:15.484Z,30.23
2016-06-25T11:14:14.903Z,29.95
2016-06-25T11:15:14.943Z,30.43
2016-06-25T11:16:14.979Z,30.53
2016-06-25T11:17:15.628Z,30.12
2016-06-25T11:18:15.669Z,30.6
2016-06-25T11:19:15.077Z,31.38
2016-06-25T11:20:29.993Z,30.57
2016-06-25T11:21:15.753Z,30.77
2016-06-25T11:23:15.832Z,33.23
2016-06-25T11:24:15.864Z,31.45
2016-06-25T11:25:15.896Z,32.62
2016-06-25T11:26:15.931Z,32.32
2016-06-25T11:27:15.980Z,33.09
2016-06-25T11:28:15.998Z,33.79
2016-06-25T11:30:16.064Z,33.85
2016-06-25T11:31:16.098Z,34.05
2016-06-25T11:32:15.530Z,34.25
2016-06-25T11:34:15.610Z,35.81
2016-06-25T11:35:16.239Z,36
2016-06-25T11:36:30.539Z,35.41
2016-06-25T11:37:16.306Z,35.71
2016-06-25T11:38:16.339Z,36.29
2016-06-25T11:39:15.801Z,36.68
2016-06-25T11:40:15.797Z,37.26
2016-06-25T11:41:15.835Z,40.01
2016-06-25T11:42:15.860Z,47.48
2016-06-25T11:43:15.897Z,53.44
2016-06-25T11:44:16.544Z,59.36
2016-06-25T11:45:15.967Z,65.22
2016-06-25T11:46:16.017Z,68.39
2016-06-25T11:49:16.711Z,71.77
2016-06-25T11:50:16.746Z,70.72
2016-06-25T11:51:16.790Z,70.2
2016-06-25T11:52:31.079Z,67.63
2016-06-25T11:53:16.238Z,71.11
2016-06-25T11:54:16.874Z,73.79
2016-06-25T11:55:16.321Z,76.38
2016-06-25T11:56:16.333Z,79
2016-06-25T11:57:16.375Z,79.59
2016-06-25T11:58:16.389Z,79.49
2016-06-25T11:59:16.431Z,78.67
2016-06-25T12:00:16.468Z,80.62
2016-06-25T12:01:16.492Z,80.17
2016-06-25T12:02:16.525Z,80.17
2016-06-25T12:03:17.164Z,80.3
2016-06-25T12:04:17.206Z,79.38
2016-06-25T12:05:17.218Z,78.11
2016-06-25T12:06:17.259Z,76.3
2016-06-25T12:07:16.694Z,78.63
2016-06-25T12:08:31.583Z,75.3
2016-06-25T12:09:17.359Z,74.04
2016-06-25T12:10:16.833Z,73.94
2016-06-25T12:11:17.419Z,74.43
2016-06-25T12:13:17.466Z,72.61
2016-06-25T12:15:17.527Z,69
2016-06-25T12:16:17.570Z,72.71
2016-06-25T12:17:16.989Z,72.64
2016-06-25T12:18:17.623Z,73.17
2016-06-25T12:19:17.661Z,72.68
2016-06-25T12:20:17.078Z,74.87
2016-06-25T12:21:17.126Z,70.37
2016-06-25T12:22:17.144Z,65.78
2016-06-25T12:23:32.058Z,66.8
2016-06-25T12:24:17.847Z,65.04
2016-06-25T12:25:17.849Z,66.6
2016-06-25T12:26:17.266Z,69.07
2016-06-25T12:27:17.905Z,71.71
2016-06-25T12:28:17.343Z,68.19
2016-06-25T12:29:17.993Z,67.83
2016-06-25T12:30:17.392Z,71.16
2016-06-25T12:31:17.431Z,65.52
2016-06-25T12:32:17.464Z,64.38
2016-06-25T12:33:18.136Z,59.78
2016-06-25T12:34:17.529Z,62.03
2016-06-25T12:35:18.167Z,63.24
2016-06-25T12:36:17.592Z,60.5
2016-06-25T12:37:17.624Z,61.38
2016-06-25T12:38:17.657Z,65
2016-06-25T12:39:18.297Z,64.22
2016-06-25T12:40:18.323Z,62.98
2016-06-25T12:41:17.753Z,64.64
2016-06-25T12:42:17.787Z,62.88
2016-06-25T12:43:18.430Z,66.69
2016-06-25T12:44:17.848Z,68.79
2016-06-25T12:45:17.885Z,68.79
2016-06-25T12:46:17.912Z,63.53
2016-06-25T12:47:17.936Z,63.33
2016-06-25T12:48:18.032Z,65.45
2016-06-25T12:49:18.014Z,61.07
2016-06-25T12:50:18.650Z,65.06
2016-06-25T12:51:18.691Z,61.73
2016-06-25T12:52:18.725Z,62.51
2016-06-25T12:53:18.751Z,60.92
2016-06-25T12:54:18.790Z,61.54
2016-06-25T12:55:33.077Z,62.51
2016-06-25T12:56:18.848Z,60.42
2016-06-25T12:57:18.278Z,62.41
2016-06-25T12:58:18.914Z,61.34
2016-06-25T12:59:18.945Z,61.57
2016-06-25T13:00:18.363Z,59.7
2016-06-25T13:01:18.397Z,59.21
2016-06-25T13:02:19.060Z,59.9
2016-06-25T13:03:18.464Z,58.53
2016-06-25T13:04:18.508Z,59.67
2016-06-25T13:05:19.139Z,56.44
2016-06-25T13:06:18.561Z,57.22
2016-06-25T13:07:19.225Z,58.4
2016-06-25T13:08:19.235Z,55.85
2016-06-25T13:09:18.668Z,57.52
2016-06-25T13:10:19.307Z,57.74
2016-06-25T13:11:33.595Z,55.58
2016-06-25T13:12:19.363Z,57.64
2016-06-25T13:13:19.412Z,55.71
2016-06-25T13:14:19.426Z,55.61
2016-06-25T13:15:19.474Z,55.58
2016-06-25T13:16:18.877Z,53.65
2016-06-25T13:17:18.932Z,53.45
2016-06-25T13:18:19.562Z,51.1
2016-06-25T13:19:18.975Z,51.69
2016-06-25T13:20:19.011Z,49.99
2016-06-25T13:21:19.662Z,50.09
2016-06-25T13:24:19.753Z,48.94
2016-06-25T13:25:19.782Z,49.73
2016-06-25T13:27:34.120Z,50.32
2016-06-25T13:28:19.275Z,49.55
2016-06-25T13:29:19.920Z,47.79
2016-06-25T13:30:19.339Z,47.69
2016-06-25T13:31:19.372Z,49.75
2016-06-25T13:32:20.026Z,48.47
2016-06-25T13:33:20.069Z,48.21
2016-06-25T13:34:19.472Z,48.89
2016-06-25T13:35:20.109Z,46.83
2016-06-25T13:36:20.161Z,50.95
2016-06-25T13:37:20.187Z,48.89
2016-06-25T13:38:19.595Z,48.33
2016-06-25T13:39:19.642Z,47.74
2016-06-25T13:40:20.281Z,49.04
2016-06-25T13:42:20.338Z,47.86
2016-06-25T13:43:34.641Z,46.5
2016-06-25T13:44:19.799Z,46.43
2016-06-25T13:45:20.443Z,46.11
2016-06-25T13:46:20.477Z,43.18
2016-06-25T13:47:19.899Z,43.95
2016-06-25T13:48:20.537Z,43.16
2016-06-25T13:49:20.569Z,43.06
2016-06-25T13:50:20.607Z,42.28
2016-06-25T13:51:20.630Z,42.77
2016-06-25T13:52:20.062Z,43.16